Terminal Aerodrome Forecast
Issued by NWS

Home | Current Version | Previous Version | Text Only | Print | Product List | Glossary On
Versions: 1 2 3 4 5 6 7 8 9 10 11 12 13 14 15 16 17 18 19 20 21 22 23 24 25 26 27 28 29 30 31 32 33 34 35 36 37 38 39 40 41 42 43 44 45 46 47 48 49 50
000
FTUS45 KBOU 311120
TAFBJC
TAF
KBJC 311120Z 3112/0112 29012G20KT P6SM VCSH SCT090 BKN120
     FM311600 34009KT P6SM SCT070 BKN120
     FM311800 01010KT P6SM SCT070 BKN110 PROB30 3121/0101 -TSRA
      BKN070CB
     FM010100 VRB05KT P6SM SCT070 BKN120
     FM010400 23007KT P6SM FEW060 SCT120=

USA.gov is the U.S. government's official web portal to all federal, state and local government web resources and services.